createdAt,value
2022-10-06T00:01:15.433Z,0
2022-10-06T00:02:31.740Z,0
2022-10-06T00:03:48.019Z,0
2022-10-06T00:05:04.311Z,0
2022-10-06T00:06:20.608Z,0
2022-10-06T00:07:36.902Z,0
2022-10-06T00:08:53.196Z,0
2022-10-06T00:10:09.490Z,0
2022-10-06T00:11:25.775Z,0
2022-10-06T00:12:42.075Z,0
2022-10-06T00:13:57.372Z,0
2022-10-06T00:15:13.671Z,0
2022-10-06T00:16:29.962Z,0
2022-10-06T00:17:46.254Z,0
2022-10-06T00:19:02.554Z,0
2022-10-06T00:20:18.841Z,0
2022-10-06T00:21:35.133Z,0
2022-10-06T00:22:51.436Z,0
2022-10-06T00:24:07.713Z,0
2022-10-06T00:25:24.022Z,0
2022-10-06T00:26:40.303Z,0
2022-10-06T00:27:56.604Z,0
2022-10-06T00:29:12.885Z,0
2022-10-06T00:30:28.203Z,0
2022-10-06T00:31:44.483Z,0
2022-10-06T00:33:00.786Z,0
2022-10-06T00:34:17.086Z,0
2022-10-06T00:35:33.374Z,0
2022-10-06T00:36:49.660Z,0
2022-10-06T00:38:05.958Z,0
2022-10-06T00:39:22.237Z,0
2022-10-06T00:40:38.543Z,0
2022-10-06T00:41:54.840Z,0
2022-10-06T00:43:11.132Z,0
2022-10-06T00:44:27.419Z,0
2022-10-06T00:45:43.714Z,0
2022-10-06T00:46:59.012Z,0
2022-10-06T00:48:15.299Z,0
2022-10-06T00:49:31.611Z,0
2022-10-06T00:50:47.889Z,0
2022-10-06T00:52:04.187Z,0
2022-10-06T00:53:20.478Z,0
2022-10-06T00:54:36.769Z,0
2022-10-06T00:55:53.060Z,0
2022-10-06T00:57:09.362Z,0
2022-10-06T00:58:25.645Z,0
2022-10-06T00:59:41.940Z,0
2022-10-06T01:00:58.243Z,0
2022-10-06T01:02:14.517Z,0
2022-10-06T01:03:29.840Z,0
2022-10-06T01:04:46.123Z,0
2022-10-06T01:06:02.423Z,0
2022-10-06T01:07:18.720Z,0
2022-10-06T01:08:34.995Z,0
2022-10-06T01:09:51.288Z,0
2022-10-06T01:11:06.610Z,0
2022-10-06T01:12:22.898Z,0
2022-10-06T01:13:39.200Z,0
2022-10-06T01:14:55.492Z,0
2022-10-06T01:16:11.774Z,0
2022-10-06T01:17:28.063Z,0
2022-10-06T01:18:44.368Z,0
2022-10-06T01:20:00.660Z,0
2022-10-06T01:21:16.951Z,0
2022-10-06T01:22:33.232Z,0
2022-10-06T01:23:49.544Z,0
2022-10-06T01:25:05.835Z,0
2022-10-06T01:26:22.129Z,0
2022-10-06T01:27:37.426Z,0
2022-10-06T01:28:53.729Z,0
2022-10-06T01:30:10.005Z,0
2022-10-06T01:31:26.318Z,0
2022-10-06T01:32:42.600Z,0
2022-10-06T01:33:58.887Z,0
2022-10-06T01:35:15.182Z,0
2022-10-06T01:36:31.480Z,0
2022-10-06T01:37:47.765Z,0
2022-10-06T01:39:04.069Z,0
2022-10-06T01:40:20.357Z,0
2022-10-06T01:41:36.639Z,0
2022-10-06T01:42:52.947Z,0
2022-10-06T01:44:08.245Z,0
2022-10-06T01:45:24.533Z,0
2022-10-06T01:46:40.829Z,0
2022-10-06T01:47:57.121Z,0
2022-10-06T01:49:13.420Z,0
2022-10-06T01:50:29.717Z,0
2022-10-06T01:51:46.007Z,0
2022-10-06T01:53:02.300Z,0
2022-10-06T01:54:18.590Z,0
2022-10-06T01:55:34.885Z,0
2022-10-06T01:56:51.168Z,0
2022-10-06T01:58:07.467Z,0
2022-10-06T01:59:23.756Z,0
2022-10-06T02:00:40.053Z,0
2022-10-06T02:01:55.358Z,0
2022-10-06T02:03:11.658Z,0
2022-10-06T02:04:27.938Z,0
2022-10-06T02:05:44.224Z,0
2022-10-06T02:07:00.535Z,0
2022-10-06T02:08:16.820Z,0
2022-10-06T02:09:33.114Z,0
2022-10-06T02:10:49.398Z,0
2022-10-06T02:12:05.698Z,0
2022-10-06T02:13:21.987Z,0
2022-10-06T02:14:38.283Z,0
2022-10-06T02:15:54.582Z,0
2022-10-06T02:17:10.867Z,0
2022-10-06T02:18:26.175Z,0
2022-10-06T02:19:42.468Z,0
2022-10-06T02:20:58.758Z,0
2022-10-06T02:22:15.056Z,0
2022-10-06T02:23:31.350Z,0
2022-10-06T02:24:47.637Z,0
2022-10-06T02:26:03.930Z,0
2022-10-06T02:27:20.227Z,0
2022-10-06T02:28:36.515Z,0
2022-10-06T02:29:52.000Z,0
2022-10-06T02:31:09.000Z,0
2022-10-06T02:32:25.402Z,0
2022-10-06T02:33:41.682Z,0
2022-10-06T02:34:56.994Z,0
2022-10-06T02:36:13.278Z,0
2022-10-06T02:37:29.570Z,0
2022-10-06T02:38:45.870Z,0
2022-10-06T02:40:02.163Z,0
2022-10-06T02:41:18.458Z,0
2022-10-06T02:42:34.753Z,0
2022-10-06T02:43:51.047Z,0
2022-10-06T02:45:07.331Z,0
2022-10-06T02:46:23.629Z,0
2022-10-06T02:47:39.924Z,0
2022-10-06T02:48:56.214Z,0
2022-10-06T02:50:12.501Z,0
2022-10-06T02:51:27.820Z,0
2022-10-06T02:52:44.105Z,0
2022-10-06T02:54:00.397Z,0
2022-10-06T02:55:16.681Z,0
2022-10-06T02:56:32.990Z,0
2022-10-06T02:57:49.277Z,0
2022-10-06T02:59:05.574Z,0
2022-10-06T03:01:38.153Z,0
2022-10-06T03:02:54.448Z,0
2022-10-06T03:04:10.729Z,0
2022-10-06T03:05:27.037Z,0
2022-10-06T03:06:43.312Z,0
2022-10-06T03:07:58.632Z,0
2022-10-06T03:09:14.922Z,0
2022-10-06T03:10:31.210Z,0
2022-10-06T03:11:47.499Z,0
2022-10-06T03:13:03.803Z,0
2022-10-06T03:14:20.098Z,0
2022-10-06T03:15:36.388Z,0
2022-10-06T03:16:52.676Z,0
2022-10-06T03:18:08.959Z,0
2022-10-06T03:19:25.270Z,0
2022-10-06T03:20:41.550Z,0
2022-10-06T03:21:57.838Z,0
2022-10-06T03:23:14.131Z,0
2022-10-06T03:24:29.438Z,0
2022-10-06T03:25:45.741Z,0
2022-10-06T03:27:02.037Z,0
2022-10-06T03:28:18.331Z,0
2022-10-06T03:29:34.626Z,0
2022-10-06T03:30:50.918Z,0
2022-10-06T03:32:07.195Z,0
2022-10-06T03:33:23.485Z,0
2022-10-06T03:34:39.777Z,0
2022-10-06T03:35:56.084Z,0
2022-10-06T03:37:12.368Z,0
2022-10-06T03:38:28.653Z,0
2022-10-06T03:39:44.966Z,0
2022-10-06T03:41:00.257Z,0
2022-10-06T03:42:16.549Z,0
2022-10-06T03:43:32.841Z,0
2022-10-06T03:44:49.138Z,0
2022-10-06T03:46:05.430Z,0
2022-10-06T03:47:21.725Z,0
2022-10-06T03:48:38.022Z,0
2022-10-06T03:49:54.305Z,0
2022-10-06T03:51:10.600Z,0
2022-10-06T03:52:26.904Z,0
2022-10-06T03:53:43.188Z,0
2022-10-06T03:54:59.480Z,0
2022-10-06T03:56:15.766Z,0
2022-10-06T03:57:31.076Z,0
2022-10-06T03:58:47.364Z,0
2022-10-06T04:00:03.661Z,0
2022-10-06T04:01:19.949Z,0
2022-10-06T04:02:36.247Z,0
2022-10-06T04:03:52.551Z,0
2022-10-06T04:05:08.830Z,0
2022-10-06T04:06:25.122Z,0
2022-10-06T04:07:41.429Z,0
2022-10-06T04:08:57.706Z,0
2022-10-06T04:10:13.996Z,0
2022-10-06T04:11:30.289Z,0
2022-10-06T04:12:46.590Z,0
2022-10-06T04:14:01.889Z,0
2022-10-06T04:15:18.183Z,0
2022-10-06T04:16:34.478Z,0
2022-10-06T04:17:50.772Z,0
2022-10-06T04:19:07.078Z,0
2022-10-06T04:20:23.363Z,0
2022-10-06T04:21:39.657Z,0
2022-10-06T04:22:55.935Z,0
2022-10-06T04:24:12.238Z,0
2022-10-06T04:25:28.538Z,0
2022-10-06T04:26:44.818Z,0
2022-10-06T04:28:01.114Z,0
2022-10-06T04:29:17.406Z,0
2022-10-06T04:30:32.721Z,0
2022-10-06T04:31:49.007Z,0
2022-10-06T04:33:05.293Z,0
2022-10-06T04:34:21.583Z,0
2022-10-06T04:35:37.888Z,0
2022-10-06T04:36:54.168Z,0
2022-10-06T04:38:10.474Z,0
2022-10-06T04:39:26.764Z,0
2022-10-06T04:40:43.061Z,0
2022-10-06T04:41:59.355Z,0
2022-10-06T04:43:15.648Z,0
2022-10-06T04:44:31.935Z,0
2022-10-06T04:45:48.234Z,0
2022-10-06T04:47:03.528Z,0
2022-10-06T04:48:19.823Z,0
2022-10-06T04:49:36.128Z,0
2022-10-06T04:50:52.420Z,0
2022-10-06T04:52:08.708Z,0
2022-10-06T04:53:24.999Z,0
2022-10-06T04:54:41.283Z,0
2022-10-06T04:55:57.573Z,0
2022-10-06T04:57:13.882Z,0
2022-10-06T04:59:46.452Z,0
2022-10-06T05:01:02.758Z,0
2022-10-06T05:02:18.991Z,1
2022-10-06T05:03:34.265Z,1
2022-10-06T05:04:50.499Z,1
2022-10-06T05:06:06.748Z,2
2022-10-06T05:07:22.982Z,1
2022-10-06T05:08:39.210Z,1
2022-10-06T05:09:55.464Z,3
2022-10-06T05:11:11.695Z,3
2022-10-06T05:12:27.928Z,3
2022-10-06T05:13:44.171Z,5
2022-10-06T05:15:00.406Z,2
2022-10-06T05:16:16.646Z,2
2022-10-06T05:17:32.892Z,3
2022-10-06T05:18:49.123Z,1
2022-10-06T05:20:04.387Z,2
2022-10-06T05:21:20.630Z,6
2022-10-06T05:22:36.852Z,6
2022-10-06T05:23:53.090Z,7
2022-10-06T05:25:09.338Z,19
2022-10-06T05:26:24.597Z,15
2022-10-06T05:27:40.832Z,11
2022-10-06T05:28:57.082Z,20
2022-10-06T05:30:13.316Z,20
2022-10-06T05:31:29.539Z,17
2022-10-06T05:32:45.783Z,19
2022-10-06T05:34:02.034Z,17
2022-10-06T05:35:18.257Z,14
2022-10-06T05:36:34.508Z,17
2022-10-06T05:37:50.742Z,24
2022-10-06T05:39:06.974Z,27
2022-10-06T05:40:23.208Z,22
2022-10-06T05:41:39.450Z,20
2022-10-06T05:42:54.712Z,22
2022-10-06T05:44:10.951Z,19
2022-10-06T05:45:27.180Z,13
2022-10-06T05:46:43.419Z,7
2022-10-06T05:47:59.645Z,17
2022-10-06T05:49:15.887Z,42
2022-10-06T05:50:32.125Z,61
2022-10-06T05:51:48.367Z,83
2022-10-06T05:53:04.591Z,91
2022-10-06T05:54:20.831Z,128
2022-10-06T05:55:37.081Z,123
2022-10-06T05:56:53.309Z,81
2022-10-06T05:58:09.563Z,42
2022-10-06T05:59:24.808Z,59
2022-10-06T06:00:41.039Z,40
2022-10-06T06:01:57.281Z,61
2022-10-06T06:03:13.528Z,63
2022-10-06T06:04:29.756Z,21
2022-10-06T06:05:46.009Z,84
2022-10-06T06:07:02.246Z,137
2022-10-06T06:08:18.476Z,130
2022-10-06T06:09:34.711Z,148
2022-10-06T06:10:50.963Z,167
2022-10-06T06:12:07.188Z,185
2022-10-06T06:13:23.432Z,229
2022-10-06T06:14:39.665Z,252
2022-10-06T06:15:54.919Z,263
2022-10-06T06:17:11.161Z,314
2022-10-06T06:18:27.402Z,354
2022-10-06T06:19:43.631Z,311
2022-10-06T06:20:59.868Z,306
2022-10-06T06:22:16.118Z,385
2022-10-06T06:23:32.347Z,384
2022-10-06T06:24:48.582Z,242
2022-10-06T06:26:04.820Z,288
2022-10-06T06:27:21.061Z,350
2022-10-06T06:28:37.305Z,353
2022-10-06T06:29:53.554Z,388
2022-10-06T06:31:09.789Z,440
2022-10-06T06:32:25.035Z,519
2022-10-06T06:33:41.285Z,605
2022-10-06T06:34:57.513Z,618
2022-10-06T06:36:13.748Z,594
2022-10-06T06:37:29.990Z,596
2022-10-06T06:38:46.232Z,626
2022-10-06T06:40:02.477Z,642
2022-10-06T06:41:18.705Z,774
2022-10-06T06:42:34.943Z,807
2022-10-06T06:43:51.179Z,761
2022-10-06T06:45:07.414Z,665
2022-10-06T06:46:23.670Z,657
2022-10-06T06:47:39.896Z,585
2022-10-06T06:48:55.151Z,520
2022-10-06T06:50:11.400Z,511
2022-10-06T06:51:27.640Z,501
2022-10-06T06:52:43.872Z,559
2022-10-06T06:54:00.116Z,593
2022-10-06T06:55:16.342Z,556
2022-10-06T06:56:32.586Z,476
2022-10-06T06:57:48.820Z,607
2022-10-06T06:59:05.062Z,850
2022-10-06T07:00:21.306Z,620
2022-10-06T07:01:37.535Z,497
2022-10-06T07:02:53.776Z,497
2022-10-06T07:04:10.018Z,690
2022-10-06T07:05:25.262Z,805
2022-10-06T07:06:41.498Z,549
2022-10-06T07:07:57.747Z,394
2022-10-06T07:09:13.991Z,388
2022-10-06T07:10:30.231Z,376
2022-10-06T07:11:46.464Z,362
2022-10-06T07:13:02.690Z,407
2022-10-06T07:14:18.928Z,438
2022-10-06T07:15:35.174Z,423
2022-10-06T07:16:51.423Z,529
2022-10-06T07:18:07.645Z,646
2022-10-06T07:19:23.893Z,622
2022-10-06T07:20:40.128Z,667
2022-10-06T07:23:11.623Z,690
2022-10-06T07:24:27.867Z,665
2022-10-06T07:25:44.106Z,620
2022-10-06T07:27:00.345Z,706
2022-10-06T07:28:16.579Z,818
2022-10-06T07:29:32.823Z,993
2022-10-06T07:30:49.045Z,1201
2022-10-06T07:32:05.291Z,1456
2022-10-06T07:33:21.540Z,1512
2022-10-06T07:34:37.778Z,1984
2022-10-06T07:35:54.000Z,1628
2022-10-06T07:37:10.235Z,1219
2022-10-06T07:38:25.494Z,1151
2022-10-06T07:39:41.739Z,1299
2022-10-06T07:40:57.978Z,1765
2022-10-06T07:42:14.207Z,1686
2022-10-06T07:43:30.459Z,1946
2022-10-06T07:44:46.690Z,1680
2022-10-06T07:46:02.938Z,2116
2022-10-06T07:47:19.168Z,2226
2022-10-06T07:48:35.414Z,2242
2022-10-06T07:49:51.653Z,1927
2022-10-06T07:51:07.881Z,3063
2022-10-06T07:52:24.128Z,1219
2022-10-06T07:53:40.368Z,4792
2022-10-06T07:54:55.613Z,1648
2022-10-06T07:56:11.860Z,11492
2022-10-06T07:57:28.092Z,13082
2022-10-06T07:58:44.326Z,3661
2022-10-06T08:00:00.562Z,6251
2022-10-06T08:01:16.813Z,21541
2022-10-06T08:02:33.055Z,26358
2022-10-06T08:03:49.281Z,24228
2022-10-06T08:05:05.514Z,23305
2022-10-06T08:06:21.759Z,24033
2022-10-06T08:07:37.993Z,24513
2022-10-06T08:08:54.237Z,26554
2022-10-06T08:10:10.472Z,15213
2022-10-06T08:11:25.721Z,5919
2022-10-06T08:12:41.974Z,6318
2022-10-06T08:13:58.214Z,25671
2022-10-06T08:15:14.453Z,28222
2022-10-06T08:16:30.693Z,24423
2022-10-06T08:17:46.928Z,25549
2022-10-06T08:19:03.170Z,18380
2022-10-06T08:20:19.392Z,24308
2022-10-06T08:21:35.633Z,24464
2022-10-06T08:22:51.869Z,15683
2022-10-06T08:24:08.106Z,5692
2022-10-06T08:25:24.347Z,5976
2022-10-06T08:26:40.585Z,25638
2022-10-06T08:27:55.841Z,31223
2022-10-06T08:29:12.092Z,29517
2022-10-06T08:30:28.323Z,26082
2022-10-06T08:31:44.567Z,23308
2022-10-06T08:33:00.801Z,25488
2022-10-06T08:34:17.033Z,25959
2022-10-06T08:35:33.273Z,24266
2022-10-06T08:36:49.519Z,16956
2022-10-06T08:38:05.757Z,12715
2022-10-06T08:39:21.999Z,8122
2022-10-06T08:40:38.236Z,17965
2022-10-06T08:41:54.460Z,23462
2022-10-06T08:43:10.706Z,18589
2022-10-06T08:44:25.961Z,17601
2022-10-06T08:45:42.192Z,2674
2022-10-06T08:46:58.434Z,12656
2022-10-06T08:48:14.679Z,16881
2022-10-06T08:49:30.910Z,13749
2022-10-06T08:50:47.150Z,13199
2022-10-06T08:52:03.396Z,6427
2022-10-06T08:53:19.631Z,14169
2022-10-06T08:54:35.876Z,8933
2022-10-06T08:55:52.111Z,14434
2022-10-06T08:57:08.341Z,2623
2022-10-06T08:58:24.588Z,16140
2022-10-06T08:59:40.815Z,16989
2022-10-06T09:00:56.075Z,13131
2022-10-06T09:02:12.308Z,14407
2022-10-06T09:03:28.546Z,14517
2022-10-06T09:04:44.787Z,13692
2022-10-06T09:06:01.034Z,15420
2022-10-06T09:07:17.272Z,12844
2022-10-06T09:08:33.494Z,11867
2022-10-06T09:09:49.749Z,11600
2022-10-06T09:11:05.982Z,15386
2022-10-06T09:12:22.229Z,20030
2022-10-06T09:13:38.450Z,15225
2022-10-06T09:14:54.704Z,17156
2022-10-06T09:16:10.940Z,16660
2022-10-06T09:17:26.180Z,33967
2022-10-06T09:18:42.427Z,7441
2022-10-06T09:19:58.665Z,13557
2022-10-06T09:21:14.896Z,72608
2022-10-06T09:22:31.148Z,25504
2022-10-06T09:23:47.380Z,14714
2022-10-06T09:25:03.618Z,4765
2022-10-06T09:33:56.305Z,66343
2022-10-06T09:35:12.541Z,8415
2022-10-06T09:36:28.780Z,9256
2022-10-06T09:37:45.030Z,58702
2022-10-06T09:39:01.258Z,4646
2022-10-06T09:41:32.759Z,1868
2022-10-06T09:45:21.484Z,78256
2022-10-06T09:46:37.730Z,80214
2022-10-06T09:49:10.197Z,78818
2022-10-06T09:50:26.449Z,74164
2022-10-06T09:51:42.666Z,10615
2022-10-06T09:54:15.172Z,75986
2022-10-06T09:55:31.400Z,59173
2022-10-06T09:56:47.646Z,2375
2022-10-06T09:58:04.011Z,9759
2022-10-06T09:59:20.232Z,10926
2022-10-06T10:00:36.471Z,78241
2022-10-06T10:01:52.725Z,81004
2022-10-06T10:03:08.952Z,76490
2022-10-06T10:04:25.200Z,59514
2022-10-06T10:05:41.449Z,82218
2022-10-06T10:06:57.681Z,81196
2022-10-06T10:08:13.919Z,75752
2022-10-06T10:09:30.152Z,58890
2022-10-06T10:10:46.400Z,3859
2022-10-06T10:12:02.639Z,3532
2022-10-06T10:13:18.865Z,4998
2022-10-06T10:14:34.136Z,5594
2022-10-06T10:15:50.359Z,6570
2022-10-06T10:17:06.610Z,1982
2022-10-06T10:18:22.843Z,10781
2022-10-06T10:19:39.092Z,4301
2022-10-06T10:20:55.314Z,3799
2022-10-06T10:22:11.565Z,3643
2022-10-06T10:23:27.798Z,3741
2022-10-06T10:24:44.043Z,4276
2022-10-06T10:26:00.275Z,4095
2022-10-06T10:27:16.524Z,4019
2022-10-06T10:28:32.752Z,1483
2022-10-06T10:29:48.993Z,3401
2022-10-06T10:31:04.239Z,6722
2022-10-06T10:32:20.493Z,14857
2022-10-06T10:33:36.717Z,84238
2022-10-06T10:34:52.970Z,82594
2022-10-06T10:36:09.204Z,79537
2022-10-06T10:37:25.441Z,79611
2022-10-06T10:38:41.674Z,84479
2022-10-06T10:39:57.920Z,82861
2022-10-06T10:41:14.160Z,84624
2022-10-06T10:42:30.402Z,78933
2022-10-06T10:43:46.637Z,75776
2022-10-06T10:45:02.879Z,65273
2022-10-06T10:46:19.112Z,23875
2022-10-06T10:47:34.368Z,9928
2022-10-06T10:48:50.592Z,8626
2022-10-06T10:50:06.839Z,79227
2022-10-06T10:51:23.074Z,77545
2022-10-06T10:52:39.313Z,75657
2022-10-06T10:53:55.547Z,76843
2022-10-06T10:55:11.803Z,58710
2022-10-06T10:56:28.031Z,5381
2022-10-06T10:57:44.268Z,4221
2022-10-06T10:59:00.520Z,8055
2022-10-06T11:00:16.747Z,8045
2022-10-06T11:01:32.997Z,2042
2022-10-06T11:02:49.230Z,18846
2022-10-06T11:04:04.493Z,3857
2022-10-06T11:05:20.724Z,29396
2022-10-06T11:06:36.970Z,4653
2022-10-06T11:07:53.201Z,34676
2022-10-06T11:09:09.445Z,33085
2022-10-06T11:10:25.677Z,29249
2022-10-06T11:11:41.906Z,31489
2022-10-06T11:12:58.164Z,26665
2022-10-06T11:14:14.386Z,23318
2022-10-06T11:15:30.633Z,20582
2022-10-06T11:16:46.867Z,17971
2022-10-06T11:18:03.113Z,16760
2022-10-06T11:19:19.353Z,16378
2022-10-06T11:20:34.596Z,21240
2022-10-06T11:21:50.849Z,22155
2022-10-06T11:23:07.086Z,23096
2022-10-06T11:24:23.311Z,23353
2022-10-06T11:25:39.555Z,20892
2022-10-06T11:26:55.788Z,18586
2022-10-06T11:28:12.039Z,20677
2022-10-06T11:29:28.282Z,20692
2022-10-06T11:30:44.521Z,18368
2022-10-06T11:32:00.747Z,16759
2022-10-06T11:33:16.990Z,14452
2022-10-06T11:34:33.231Z,16024
2022-10-06T11:35:49.464Z,18260
2022-10-06T11:37:04.735Z,20840
2022-10-06T11:38:20.954Z,18119
2022-10-06T11:39:37.210Z,18116
2022-10-06T11:40:53.433Z,15469
2022-10-06T11:42:09.681Z,20048
2022-10-06T11:43:25.919Z,19968
2022-10-06T11:44:42.153Z,19183
2022-10-06T11:45:58.405Z,15535
2022-10-06T11:47:14.643Z,13347
2022-10-06T11:48:30.880Z,18404
2022-10-06T11:49:47.120Z,21777
2022-10-06T11:51:03.352Z,16789
2022-10-06T11:52:19.590Z,18853
2022-10-06T11:53:34.836Z,20821
2022-10-06T11:54:51.073Z,16176
2022-10-06T11:56:07.312Z,19310
2022-10-06T11:57:23.557Z,18313
2022-10-06T11:58:39.800Z,17275
2022-10-06T11:59:56.044Z,15510
2022-10-06T12:01:12.284Z,13851
2022-10-06T12:02:28.519Z,16981
2022-10-06T12:03:44.748Z,15687
2022-10-06T12:05:00.993Z,17359
2022-10-06T12:06:17.242Z,18194
2022-10-06T12:07:33.467Z,20055
2022-10-06T12:08:49.718Z,20027
2022-10-06T12:10:04.970Z,24085
2022-10-06T12:11:21.194Z,31144
2022-10-06T12:12:37.451Z,18734
2022-10-06T12:13:53.683Z,12360
2022-10-06T12:15:09.914Z,16308
2022-10-06T12:16:26.160Z,21569
2022-10-06T12:17:42.403Z,26427
2022-10-06T12:18:58.638Z,22189
2022-10-06T12:20:14.871Z,20720
2022-10-06T12:21:31.107Z,22642
2022-10-06T12:22:47.347Z,18605
2022-10-06T12:24:03.593Z,19917
2022-10-06T12:25:19.824Z,15938
2022-10-06T12:26:35.090Z,13210
2022-10-06T12:27:51.327Z,17119
2022-10-06T12:29:07.560Z,15928
2022-10-06T12:30:23.794Z,18916
2022-10-06T12:31:40.039Z,17195
2022-10-06T12:32:56.280Z,20999
2022-10-06T12:34:12.521Z,10377
2022-10-06T12:35:28.751Z,21836
2022-10-06T12:36:45.002Z,18073
2022-10-06T12:38:01.243Z,15724
2022-10-06T12:39:17.475Z,13681
2022-10-06T12:40:33.710Z,18679
2022-10-06T12:41:49.955Z,20280
2022-10-06T12:43:05.197Z,19428
2022-10-06T12:44:21.455Z,17201
2022-10-06T12:45:37.681Z,16163
2022-10-06T12:46:53.920Z,21226
2022-10-06T12:48:10.162Z,20044
2022-10-06T12:49:26.400Z,18065
2022-10-06T12:50:42.641Z,16144
2022-10-06T12:51:58.866Z,3496
2022-10-06T12:53:15.118Z,17194
2022-10-06T12:54:31.359Z,2060
2022-10-06T12:55:47.604Z,20446
2022-10-06T12:57:03.842Z,21095
2022-10-06T12:58:20.069Z,18716
2022-10-06T12:59:35.322Z,18486
2022-10-06T13:00:51.557Z,17151
2022-10-06T13:02:07.815Z,10028
2022-10-06T13:03:24.038Z,16605
2022-10-06T13:04:40.280Z,26468
2022-10-06T13:05:56.521Z,24855
2022-10-06T13:07:12.754Z,25766
2022-10-06T13:08:28.997Z,35008
2022-10-06T13:09:45.244Z,25918
2022-10-06T13:11:01.480Z,8996
2022-10-06T13:12:17.717Z,13405
2022-10-06T13:13:33.958Z,34866
2022-10-06T13:14:50.192Z,35451
2022-10-06T13:16:05.446Z,32643
2022-10-06T13:17:21.691Z,36875
2022-10-06T13:18:37.923Z,33604
2022-10-06T13:19:54.167Z,25000
2022-10-06T13:21:10.410Z,5899
2022-10-06T13:22:26.641Z,25130
2022-10-06T13:23:42.878Z,72972
2022-10-06T13:24:59.116Z,37484
2022-10-06T13:26:15.355Z,9764
2022-10-06T13:27:31.592Z,36249
2022-10-06T13:28:47.827Z,24092
2022-10-06T13:30:04.073Z,5534
2022-10-06T13:31:20.304Z,11828
2022-10-06T13:32:35.577Z,73232
2022-10-06T13:33:51.799Z,37668
2022-10-06T13:35:08.038Z,18859
2022-10-06T13:36:24.281Z,23663
2022-10-06T13:37:40.521Z,27855
2022-10-06T13:38:56.762Z,9768
2022-10-06T13:40:13.008Z,12199
2022-10-06T13:41:29.248Z,27683
2022-10-06T13:42:45.478Z,23889
2022-10-06T13:44:01.719Z,28815
2022-10-06T13:45:17.966Z,26211
2022-10-06T13:46:34.190Z,20380
2022-10-06T13:47:50.444Z,10105
2022-10-06T13:49:05.688Z,6464
2022-10-06T13:50:21.927Z,28634
2022-10-06T13:51:38.172Z,15246
2022-10-06T13:52:54.412Z,26418
2022-10-06T13:54:10.633Z,17127
2022-10-06T13:55:26.887Z,8942
2022-10-06T13:56:42.137Z,15606
2022-10-06T13:57:58.371Z,11830
2022-10-06T13:59:14.629Z,14505
2022-10-06T14:00:30.861Z,14851
2022-10-06T14:01:47.105Z,10737
2022-10-06T14:03:03.332Z,10304
2022-10-06T14:04:19.583Z,10931
2022-10-06T14:05:35.817Z,13114
2022-10-06T14:06:52.049Z,10081
2022-10-06T14:08:08.296Z,17434
2022-10-06T14:09:24.538Z,16235
2022-10-06T14:10:40.758Z,9246
2022-10-06T14:11:57.005Z,8217
2022-10-06T14:13:12.253Z,13836
2022-10-06T14:14:28.498Z,17115
2022-10-06T14:15:44.741Z,22248
2022-10-06T14:17:00.982Z,17753
2022-10-06T14:18:17.220Z,4153
2022-10-06T14:19:33.449Z,15660
2022-10-06T14:20:49.687Z,17513
2022-10-06T14:22:05.924Z,19112
2022-10-06T14:23:22.169Z,17505
2022-10-06T14:24:38.410Z,4253
2022-10-06T14:25:54.643Z,12422
2022-10-06T14:27:10.890Z,17351
2022-10-06T14:28:27.119Z,13905
2022-10-06T14:29:42.382Z,13251
2022-10-06T14:30:58.616Z,8565
2022-10-06T14:32:14.859Z,9256
2022-10-06T14:33:31.097Z,7636
2022-10-06T14:34:47.338Z,11337
2022-10-06T14:36:03.564Z,13559
2022-10-06T14:37:19.806Z,3755
2022-10-06T14:38:36.048Z,11177
2022-10-06T14:39:52.282Z,18888
2022-10-06T14:41:08.524Z,17930
2022-10-06T14:42:24.759Z,9554
2022-10-06T14:43:41.006Z,4603
2022-10-06T14:44:57.245Z,17835
2022-10-06T14:46:12.499Z,18641
2022-10-06T14:47:28.736Z,16071
2022-10-06T14:48:44.979Z,4106
2022-10-06T14:50:01.221Z,13529
2022-10-06T14:51:17.447Z,11816
2022-10-06T14:52:33.685Z,11394
2022-10-06T14:53:49.930Z,6533
2022-10-06T14:55:06.166Z,5854
2022-10-06T14:56:22.398Z,11581
2022-10-06T14:57:38.651Z,13264
2022-10-06T14:58:54.886Z,4508
2022-10-06T15:00:11.000Z,9728
2022-10-06T15:01:27.368Z,15474
2022-10-06T15:02:42.614Z,12218
2022-10-06T15:03:58.857Z,2559
2022-10-06T15:05:15.102Z,8382
2022-10-06T15:06:31.321Z,11472
2022-10-06T15:07:47.568Z,8475
2022-10-06T15:09:03.810Z,3677
2022-10-06T15:10:20.041Z,5365
2022-10-06T15:11:36.281Z,6908
2022-10-06T15:12:52.517Z,3381
2022-10-06T15:14:08.764Z,1605
2022-10-06T15:15:24.993Z,1563
2022-10-06T15:16:41.245Z,1520
2022-10-06T15:17:57.477Z,1491
2022-10-06T15:19:12.738Z,1505
2022-10-06T15:20:28.967Z,1474
2022-10-06T15:21:45.211Z,1404
2022-10-06T15:23:01.448Z,1375
2022-10-06T15:24:17.696Z,1394
2022-10-06T15:25:33.917Z,1339
2022-10-06T15:26:50.158Z,1270
2022-10-06T15:28:06.404Z,1240
2022-10-06T15:29:22.648Z,1234
2022-10-06T15:30:38.888Z,1212
2022-10-06T15:31:55.110Z,1161
2022-10-06T15:33:11.359Z,1139
2022-10-06T15:34:27.603Z,1120
2022-10-06T15:35:42.840Z,1099
2022-10-06T15:36:59.082Z,1072
2022-10-06T15:38:15.337Z,1032
2022-10-06T15:39:31.565Z,1015
2022-10-06T15:40:47.795Z,997
2022-10-06T15:42:04.039Z,981
2022-10-06T15:43:20.278Z,969
2022-10-06T15:44:36.520Z,944
2022-10-06T15:45:52.750Z,930
2022-10-06T15:47:09.005Z,911
2022-10-06T15:48:25.231Z,892
2022-10-06T15:49:41.465Z,866
2022-10-06T15:50:57.720Z,844
2022-10-06T15:52:12.977Z,822
2022-10-06T15:53:29.195Z,797
2022-10-06T15:54:45.449Z,778
2022-10-06T15:56:01.678Z,758
2022-10-06T15:57:17.914Z,732
2022-10-06T15:58:34.166Z,708
2022-10-06T15:59:50.405Z,692
2022-10-06T16:01:06.634Z,673
2022-10-06T16:02:22.872Z,644
2022-10-06T16:03:39.101Z,624
2022-10-06T16:04:55.360Z,609
2022-10-06T16:06:11.588Z,586
2022-10-06T16:07:27.829Z,557
2022-10-06T16:08:43.076Z,532
2022-10-06T16:09:59.323Z,510
2022-10-06T16:11:15.548Z,492
2022-10-06T16:12:31.795Z,473
2022-10-06T16:13:48.045Z,451
2022-10-06T16:15:04.279Z,426
2022-10-06T16:16:20.511Z,401
2022-10-06T16:17:36.755Z,388
2022-10-06T16:18:52.980Z,364
2022-10-06T16:20:09.229Z,341
2022-10-06T16:21:25.459Z,319
2022-10-06T16:22:41.709Z,299
2022-10-06T16:23:57.950Z,279
2022-10-06T16:25:13.187Z,257
2022-10-06T16:26:29.430Z,245
2022-10-06T16:27:45.680Z,226
2022-10-06T16:29:01.920Z,208
2022-10-06T16:30:18.153Z,189
2022-10-06T16:31:34.380Z,167
2022-10-06T16:32:50.633Z,160
2022-10-06T16:34:06.865Z,139
2022-10-06T16:35:23.106Z,125
2022-10-06T16:36:39.352Z,114
2022-10-06T16:37:55.580Z,108
2022-10-06T16:39:11.817Z,91
2022-10-06T16:40:28.058Z,81
2022-10-06T16:41:43.317Z,66
2022-10-06T16:42:59.559Z,60
2022-10-06T16:44:15.798Z,53
2022-10-06T16:45:32.026Z,41
2022-10-06T16:46:48.259Z,38
2022-10-06T16:48:04.495Z,29
2022-10-06T16:49:20.738Z,26
2022-10-06T16:50:36.986Z,20
2022-10-06T16:51:53.223Z,17
2022-10-06T16:53:09.449Z,16
2022-10-06T16:54:25.696Z,11
2022-10-06T16:55:41.936Z,11
2022-10-06T16:56:58.183Z,6
2022-10-06T16:58:13.435Z,3
2022-10-06T16:59:29.660Z,9
2022-10-06T17:00:45.900Z,7
2022-10-06T17:02:02.150Z,4
2022-10-06T17:03:18.371Z,3
2022-10-06T17:04:34.622Z,2
2022-10-06T17:05:50.863Z,2
2022-10-06T17:07:07.106Z,1
2022-10-06T17:08:23.345Z,1
2022-10-06T17:09:39.571Z,1
2022-10-06T17:10:55.820Z,1
2022-10-06T17:12:12.108Z,0
2022-10-06T17:13:28.390Z,0
2022-10-06T17:14:43.705Z,0
2022-10-06T17:16:00.005Z,0
2022-10-06T17:17:16.285Z,0
2022-10-06T17:18:32.575Z,0
2022-10-06T17:19:48.882Z,0
2022-10-06T17:21:05.178Z,0
2022-10-06T17:22:21.453Z,0
2022-10-06T17:23:37.751Z,0
2022-10-06T17:24:54.054Z,0
2022-10-06T17:26:10.344Z,0
2022-10-06T17:27:26.632Z,0
2022-10-06T17:28:42.918Z,0
2022-10-06T17:29:59.218Z,0
2022-10-06T17:31:14.528Z,0
2022-10-06T17:32:30.819Z,0
2022-10-06T17:33:47.104Z,0
2022-10-06T17:35:03.394Z,0
2022-10-06T17:36:19.686Z,0
2022-10-06T17:37:35.987Z,0
2022-10-06T17:38:52.287Z,0
2022-10-06T17:40:08.568Z,0
2022-10-06T17:41:24.863Z,0
2022-10-06T17:42:41.160Z,0
2022-10-06T17:43:57.440Z,0
2022-10-06T17:45:13.752Z,0
2022-10-06T17:46:30.042Z,0
2022-10-06T17:47:45.346Z,0